sensor_id;sensor_type;location;lat;lon;timestamp;temperature;humidity
31527;DHT22;18136;42.236;-73.040;2023-09-07T00:00:30;22.50;99.90
31527;DHT22;18136;42.236;-73.040;2023-09-07T00:02:56;22.40;99.90
31527;DHT22;18136;42.236;-73.040;2023-09-07T00:05:22;22.40;99.90
31527;DHT22;18136;42.236;-73.040;2023-09-07T00:07:48;22.30;99.90
31527;DHT22;18136;42.236;-73.040;2023-09-07T00:10:15;22.30;99.90
31527;DHT22;18136;42.236;-73.040;2023-09-07T00:12:44;22.20;99.90
31527;DHT22;18136;42.236;-73.040;2023-09-07T00:15:10;22.20;99.90
31527;DHT22;18136;42.236;-73.040;2023-09-07T00:17:37;22.10;99.90
31527;DHT22;18136;42.236;-73.040;2023-09-07T00:20:13;22.10;99.90
31527;DHT22;18136;42.236;-73.040;2023-09-07T00:22:40;22.00;99.90
31527;DHT22;18136;42.236;-73.040;2023-09-07T00:25:06;22.00;99.90
31527;DHT22;18136;42.236;-73.040;2023-09-07T00:27:33;21.90;99.90
31527;DHT22;18136;42.236;-73.040;2023-09-07T00:30:02;21.90;99.90
31527;DHT22;18136;42.236;-73.040;2023-09-07T00:32:32;21.90;99.90
31527;DHT22;18136;42.236;-73.040;2023-09-07T00:34:59;21.80;99.90
31527;DHT22;18136;42.236;-73.040;2023-09-07T00:37:25;21.80;99.90
31527;DHT22;18136;42.236;-73.040;2023-09-07T00:39:51;21.70;99.90
31527;DHT22;18136;42.236;-73.040;2023-09-07T00:42:18;21.70;99.90
31527;DHT22;18136;42.236;-73.040;2023-09-07T00:44:44;21.60;99.90
31527;DHT22;18136;42.236;-73.040;2023-09-07T00:47:10;21.60;99.90
31527;DHT22;18136;42.236;-73.040;2023-09-07T00:49:37;21.60;99.90
31527;DHT22;18136;42.236;-73.040;2023-09-07T00:52:05;21.50;99.90
31527;DHT22;18136;42.236;-73.040;2023-09-07T00:54:32;21.50;99.90
31527;DHT22;18136;42.236;-73.040;2023-09-07T00:56:58;21.50;99.90
31527;DHT22;18136;42.236;-73.040;2023-09-07T00:59:25;21.40;99.90
31527;DHT22;18136;42.236;-73.040;2023-09-07T01:01:51;21.30;99.90
31527;DHT22;18136;42.236;-73.040;2023-09-07T01:04:17;21.30;99.90
31527;DHT22;18136;42.236;-73.040;2023-09-07T01:06:47;21.30;99.90
31527;DHT22;18136;42.236;-73.040;2023-09-07T01:09:26;21.20;99.90
31527;DHT22;18136;42.236;-73.040;2023-09-07T01:11:53;21.20;99.90
31527;DHT22;18136;42.236;-73.040;2023-09-07T01:14:19;21.20;99.90
31527;DHT22;18136;42.236;-73.040;2023-09-07T01:16:45;21.10;99.90
31527;DHT22;18136;42.236;-73.040;2023-09-07T01:19:12;21.10;99.90
31527;DHT22;18136;42.236;-73.040;2023-09-07T01:21:39;21.00;99.90
31527;DHT22;18136;42.236;-73.040;2023-09-07T01:24:09;21.00;99.90
31527;DHT22;18136;42.236;-73.040;2023-09-07T01:26:36;21.00;99.90
31527;DHT22;18136;42.236;-73.040;2023-09-07T01:29:09;20.90;99.90
31527;DHT22;18136;42.236;-73.040;2023-09-07T01:31:38;20.90;99.90
31527;DHT22;18136;42.236;-73.040;2023-09-07T01:34:05;20.90;99.90
31527;DHT22;18136;42.236;-73.040;2023-09-07T01:36:32;20.80;99.90
31527;DHT22;18136;42.236;-73.040;2023-09-07T01:38:58;20.80;99.90
31527;DHT22;18136;42.236;-73.040;2023-09-07T01:41:24;20.80;99.90
31527;DHT22;18136;42.236;-73.040;2023-09-07T01:43:51;20.80;99.90
31527;DHT22;18136;42.236;-73.040;2023-09-07T01:46:17;20.80;99.90
31527;DHT22;18136;42.236;-73.040;2023-09-07T01:48:43;20.70;99.90
31527;DHT22;18136;42.236;-73.040;2023-09-07T01:51:09;20.70;99.90
31527;DHT22;18136;42.236;-73.040;2023-09-07T01:53:36;20.70;99.90
31527;DHT22;18136;42.236;-73.040;2023-09-07T01:56:02;20.70;99.90
31527;DHT22;18136;42.236;-73.040;2023-09-07T01:58:28;20.60;99.90
31527;DHT22;18136;42.236;-73.040;2023-09-07T02:00:57;20.60;99.90
31527;DHT22;18136;42.236;-73.040;2023-09-07T02:03:25;20.60;99.90
31527;DHT22;18136;42.236;-73.040;2023-09-07T02:05:52;20.50;99.90
31527;DHT22;18136;42.236;-73.040;2023-09-07T02:08:19;20.50;99.90
31527;DHT22;18136;42.236;-73.040;2023-09-07T02:10:45;20.50;99.90
31527;DHT22;18136;42.236;-73.040;2023-09-07T02:13:12;20.50;99.90
31527;DHT22;18136;42.236;-73.040;2023-09-07T02:15:38;20.50;99.90
31527;DHT22;18136;42.236;-73.040;2023-09-07T02:18:05;20.40;99.90
31527;DHT22;18136;42.236;-73.040;2023-09-07T02:20:32;20.40;99.90
31527;DHT22;18136;42.236;-73.040;2023-09-07T02:22:59;20.40;99.90
31527;DHT22;18136;42.236;-73.040;2023-09-07T02:25:25;20.40;99.90
31527;DHT22;18136;42.236;-73.040;2023-09-07T02:27:53;20.40;99.90
31527;DHT22;18136;42.236;-73.040;2023-09-07T02:30:19;20.30;99.90
31527;DHT22;18136;42.236;-73.040;2023-09-07T02:32:46;20.30;99.90
31527;DHT22;18136;42.236;-73.040;2023-09-07T02:35:12;20.30;99.90
31527;DHT22;18136;42.236;-73.040;2023-09-07T02:37:38;20.20;99.90
31527;DHT22;18136;42.236;-73.040;2023-09-07T02:40:05;20.20;99.90
31527;DHT22;18136;42.236;-73.040;2023-09-07T02:42:35;20.20;99.90
31527;DHT22;18136;42.236;-73.040;2023-09-07T02:45:01;20.20;99.90
31527;DHT22;18136;42.236;-73.040;2023-09-07T02:47:27;20.20;99.90
31527;DHT22;18136;42.236;-73.040;2023-09-07T02:49:56;20.20;99.90
31527;DHT22;18136;42.236;-73.040;2023-09-07T02:52:23;20.20;99.90
31527;DHT22;18136;42.236;-73.040;2023-09-07T02:54:49;20.20;99.90
31527;DHT22;18136;42.236;-73.040;2023-09-07T02:57:15;20.20;99.90
31527;DHT22;18136;42.236;-73.040;2023-09-07T02:59:41;20.20;99.90
31527;DHT22;18136;42.236;-73.040;2023-09-07T03:02:07;20.20;99.90
31527;DHT22;18136;42.236;-73.040;2023-09-07T03:04:33;20.20;99.90
31527;DHT22;18136;42.236;-73.040;2023-09-07T03:07:01;20.20;99.90
31527;DHT22;18136;42.236;-73.040;2023-09-07T03:09:27;20.20;99.90
31527;DHT22;18136;42.236;-73.040;2023-09-07T03:11:53;20.20;99.90
31527;DHT22;18136;42.236;-73.040;2023-09-07T03:14:19;20.20;99.90
31527;DHT22;18136;42.236;-73.040;2023-09-07T03:16:46;20.20;99.90
31527;DHT22;18136;42.236;-73.040;2023-09-07T03:19:16;20.20;99.90
31527;DHT22;18136;42.236;-73.040;2023-09-07T03:21:42;20.20;99.90
31527;DHT22;18136;42.236;-73.040;2023-09-07T03:24:08;20.20;99.90
31527;DHT22;18136;42.236;-73.040;2023-09-07T03:26:34;20.20;99.90
31527;DHT22;18136;42.236;-73.040;2023-09-07T03:29:00;20.20;99.90
31527;DHT22;18136;42.236;-73.040;2023-09-07T03:31:26;20.20;99.90
31527;DHT22;18136;42.236;-73.040;2023-09-07T03:33:52;20.20;99.90
31527;DHT22;18136;42.236;-73.040;2023-09-07T03:36:18;20.10;99.90
31527;DHT22;18136;42.236;-73.040;2023-09-07T03:38:45;20.10;99.90
31527;DHT22;18136;42.236;-73.040;2023-09-07T03:41:11;20.10;99.90
31527;DHT22;18136;42.236;-73.040;2023-09-07T03:43:37;20.10;99.90
31527;DHT22;18136;42.236;-73.040;2023-09-07T03:46:03;20.10;99.90
31527;DHT22;18136;42.236;-73.040;2023-09-07T03:48:31;20.00;99.90
31527;DHT22;18136;42.236;-73.040;2023-09-07T03:50:57;20.00;99.90
31527;DHT22;18136;42.236;-73.040;2023-09-07T03:53:23;20.00;99.90
31527;DHT22;18136;42.236;-73.040;2023-09-07T03:55:49;20.00;99.90
31527;DHT22;18136;42.236;-73.040;2023-09-07T03:58:15;20.00;99.90
31527;DHT22;18136;42.236;-73.040;2023-09-07T04:00:41;20.00;99.90
31527;DHT22;18136;42.236;-73.040;2023-09-07T04:03:08;20.00;99.90
31527;DHT22;18136;42.236;-73.040;2023-09-07T04:05:37;20.00;99.90
31527;DHT22;18136;42.236;-73.040;2023-09-07T04:08:04;20.00;99.90
31527;DHT22;18136;42.236;-73.040;2023-09-07T04:10:31;19.90;99.90
31527;DHT22;18136;42.236;-73.040;2023-09-07T04:12:57;19.90;99.90
31527;DHT22;18136;42.236;-73.040;2023-09-07T04:15:23;19.90;99.90
31527;DHT22;18136;42.236;-73.040;2023-09-07T04:17:51;19.80;99.90
31527;DHT22;18136;42.236;-73.040;2023-09-07T04:20:17;19.80;99.90
31527;DHT22;18136;42.236;-73.040;2023-09-07T04:22:45;19.80;99.90
31527;DHT22;18136;42.236;-73.040;2023-09-07T04:25:11;19.80;99.90
31527;DHT22;18136;42.236;-73.040;2023-09-07T04:27:37;19.70;99.90
31527;DHT22;18136;42.236;-73.040;2023-09-07T04:30:04;19.70;99.90
31527;DHT22;18136;42.236;-73.040;2023-09-07T04:32:30;19.70;99.90
31527;DHT22;18136;42.236;-73.040;2023-09-07T04:34:56;19.70;99.90
31527;DHT22;18136;42.236;-73.040;2023-09-07T04:37:25;19.70;99.90
31527;DHT22;18136;42.236;-73.040;2023-09-07T04:39:52;19.60;99.90
31527;DHT22;18136;42.236;-73.040;2023-09-07T04:42:22;19.60;99.90
31527;DHT22;18136;42.236;-73.040;2023-09-07T04:44:50;19.60;99.90
31527;DHT22;18136;42.236;-73.040;2023-09-07T04:47:17;19.60;99.90
31527;DHT22;18136;42.236;-73.040;2023-09-07T04:49:49;19.60;99.90
31527;DHT22;18136;42.236;-73.040;2023-09-07T04:52:16;19.60;99.90
31527;DHT22;18136;42.236;-73.040;2023-09-07T04:54:43;19.60;99.90
31527;DHT22;18136;42.236;-73.040;2023-09-07T04:57:09;19.60;99.90
31527;DHT22;18136;42.236;-73.040;2023-09-07T04:59:35;19.50;99.90
31527;DHT22;18136;42.236;-73.040;2023-09-07T05:02:01;19.50;99.90
31527;DHT22;18136;42.236;-73.040;2023-09-07T05:04:29;19.50;99.90
31527;DHT22;18136;42.236;-73.040;2023-09-07T05:06:59;19.50;99.90
31527;DHT22;18136;42.236;-73.040;2023-09-07T05:09:25;19.50;99.90
31527;DHT22;18136;42.236;-73.040;2023-09-07T05:11:52;19.50;99.90
31527;DHT22;18136;42.236;-73.040;2023-09-07T05:14:18;19.40;99.90
31527;DHT22;18136;42.236;-73.040;2023-09-07T05:16:44;19.40;99.90
31527;DHT22;18136;42.236;-73.040;2023-09-07T05:19:10;19.40;99.90
31527;DHT22;18136;42.236;-73.040;2023-09-07T05:21:36;19.40;99.90
31527;DHT22;18136;42.236;-73.040;2023-09-07T05:24:02;19.40;99.90
31527;DHT22;18136;42.236;-73.040;2023-09-07T05:26:29;19.40;99.90
31527;DHT22;18136;42.236;-73.040;2023-09-07T05:28:55;19.30;99.90
31527;DHT22;18136;42.236;-73.040;2023-09-07T05:31:21;19.40;99.90
31527;DHT22;18136;42.236;-73.040;2023-09-07T05:33:47;19.30;99.90
31527;DHT22;18136;42.236;-73.040;2023-09-07T05:36:14;19.30;99.90
31527;DHT22;18136;42.236;-73.040;2023-09-07T05:38:40;19.30;99.90
31527;DHT22;18136;42.236;-73.040;2023-09-07T05:41:06;19.30;99.90
31527;DHT22;18136;42.236;-73.040;2023-09-07T05:43:33;19.30;99.90
31527;DHT22;18136;42.236;-73.040;2023-09-07T05:45:59;19.30;99.90
31527;DHT22;18136;42.236;-73.040;2023-09-07T05:48:25;19.20;99.90
31527;DHT22;18136;42.236;-73.040;2023-09-07T05:50:51;19.30;99.90
31527;DHT22;18136;42.236;-73.040;2023-09-07T05:53:19;19.30;99.90
31527;DHT22;18136;42.236;-73.040;2023-09-07T05:55:50;19.30;99.90
31527;DHT22;18136;42.236;-73.040;2023-09-07T05:58:16;19.20;99.90
31527;DHT22;18136;42.236;-73.040;2023-09-07T06:00:45;19.20;99.90
31527;DHT22;18136;42.236;-73.040;2023-09-07T06:03:11;19.20;99.90
31527;DHT22;18136;42.236;-73.040;2023-09-07T06:05:37;19.20;99.90
31527;DHT22;18136;42.236;-73.040;2023-09-07T06:08:05;19.20;99.90
31527;DHT22;18136;42.236;-73.040;2023-09-07T06:10:34;19.20;99.90
31527;DHT22;18136;42.236;-73.040;2023-09-07T06:13:03;19.20;99.90
31527;DHT22;18136;42.236;-73.040;2023-09-07T06:15:38;19.20;99.90
31527;DHT22;18136;42.236;-73.040;2023-09-07T06:18:04;19.20;99.90
31527;DHT22;18136;42.236;-73.040;2023-09-07T06:20:30;19.20;99.90
31527;DHT22;18136;42.236;-73.040;2023-09-07T06:22:56;19.20;99.90
31527;DHT22;18136;42.236;-73.040;2023-09-07T06:25:22;19.20;99.90
31527;DHT22;18136;42.236;-73.040;2023-09-07T06:27:52;19.20;99.90
31527;DHT22;18136;42.236;-73.040;2023-09-07T06:30:18;19.20;99.90
31527;DHT22;18136;42.236;-73.040;2023-09-07T06:32:45;19.10;99.90
31527;DHT22;18136;42.236;-73.040;2023-09-07T06:35:11;19.10;99.90
31527;DHT22;18136;42.236;-73.040;2023-09-07T06:37:37;19.10;99.90
31527;DHT22;18136;42.236;-73.040;2023-09-07T06:40:07;19.10;99.90
31527;DHT22;18136;42.236;-73.040;2023-09-07T06:42:35;19.10;99.90
31527;DHT22;18136;42.236;-73.040;2023-09-07T06:45:01;19.10;99.90
31527;DHT22;18136;42.236;-73.040;2023-09-07T06:47:30;19.10;99.90
31527;DHT22;18136;42.236;-73.040;2023-09-07T06:49:56;19.10;99.90
31527;DHT22;18136;42.236;-73.040;2023-09-07T06:52:23;19.10;99.90
31527;DHT22;18136;42.236;-73.040;2023-09-07T06:54:52;19.10;99.90
31527;DHT22;18136;42.236;-73.040;2023-09-07T06:57:19;19.10;99.90
31527;DHT22;18136;42.236;-73.040;2023-09-07T06:59:45;19.00;99.90
31527;DHT22;18136;42.236;-73.040;2023-09-07T07:02:11;19.00;99.90
31527;DHT22;18136;42.236;-73.040;2023-09-07T07:04:37;19.00;99.90
31527;DHT22;18136;42.236;-73.040;2023-09-07T07:07:04;19.00;99.90
31527;DHT22;18136;42.236;-73.040;2023-09-07T07:09:31;19.00;99.90
31527;DHT22;18136;42.236;-73.040;2023-09-07T07:12:01;19.00;99.90
31527;DHT22;18136;42.236;-73.040;2023-09-07T07:14:27;19.00;99.90
31527;DHT22;18136;42.236;-73.040;2023-09-07T07:16:53;19.00;99.90
31527;DHT22;18136;42.236;-73.040;2023-09-07T07:19:19;19.00;99.90
31527;DHT22;18136;42.236;-73.040;2023-09-07T07:21:45;19.00;99.90
31527;DHT22;18136;42.236;-73.040;2023-09-07T07:24:11;19.00;99.90
31527;DHT22;18136;42.236;-73.040;2023-09-07T07:26:37;19.00;99.90
31527;DHT22;18136;42.236;-73.040;2023-09-07T07:29:04;19.00;99.90
31527;DHT22;18136;42.236;-73.040;2023-09-07T07:31:30;18.90;99.90
31527;DHT22;18136;42.236;-73.040;2023-09-07T07:33:56;19.00;99.90
31527;DHT22;18136;42.236;-73.040;2023-09-07T07:36:23;19.00;99.90
31527;DHT22;18136;42.236;-73.040;2023-09-07T07:38:49;19.00;99.90
31527;DHT22;18136;42.236;-73.040;2023-09-07T07:41:15;19.00;99.90
31527;DHT22;18136;42.236;-73.040;2023-09-07T07:43:41;19.00;99.90
31527;DHT22;18136;42.236;-73.040;2023-09-07T07:46:08;18.90;99.90
31527;DHT22;18136;42.236;-73.040;2023-09-07T07:48:34;18.90;99.90
31527;DHT22;18136;42.236;-73.040;2023-09-07T07:51:04;18.90;99.90
31527;DHT22;18136;42.236;-73.040;2023-09-07T07:53:31;18.90;99.90
31527;DHT22;18136;42.236;-73.040;2023-09-07T07:55:57;18.90;99.90
31527;DHT22;18136;42.236;-73.040;2023-09-07T07:58:28;18.90;99.90
31527;DHT22;18136;42.236;-73.040;2023-09-07T08:00:54;19.00;99.90
31527;DHT22;18136;42.236;-73.040;2023-09-07T08:03:23;18.90;99.90
31527;DHT22;18136;42.236;-73.040;2023-09-07T08:05:49;18.90;99.90
31527;DHT22;18136;42.236;-73.040;2023-09-07T08:08:15;18.90;99.90
31527;DHT22;18136;42.236;-73.040;2023-09-07T08:10:42;18.90;99.90
31527;DHT22;18136;42.236;-73.040;2023-09-07T08:13:08;18.90;99.90
31527;DHT22;18136;42.236;-73.040;2023-09-07T08:15:34;18.90;99.90
31527;DHT22;18136;42.236;-73.040;2023-09-07T08:18:00;18.90;99.90
31527;DHT22;18136;42.236;-73.040;2023-09-07T08:20:27;18.90;99.90
31527;DHT22;18136;42.236;-73.040;2023-09-07T08:22:53;18.90;99.90
31527;DHT22;18136;42.236;-73.040;2023-09-07T08:25:19;18.90;99.90
31527;DHT22;18136;42.236;-73.040;2023-09-07T08:27:46;18.90;99.90
31527;DHT22;18136;42.236;-73.040;2023-09-07T08:30:16;18.90;99.90
31527;DHT22;18136;42.236;-73.040;2023-09-07T08:32:46;18.90;99.90
31527;DHT22;18136;42.236;-73.040;2023-09-07T08:35:13;18.80;99.90
31527;DHT22;18136;42.236;-73.040;2023-09-07T08:37:42;18.80;99.90
31527;DHT22;18136;42.236;-73.040;2023-09-07T08:40:09;18.80;99.90
31527;DHT22;18136;42.236;-73.040;2023-09-07T08:42:37;18.80;99.90
31527;DHT22;18136;42.236;-73.040;2023-09-07T08:45:04;18.80;99.90
31527;DHT22;18136;42.236;-73.040;2023-09-07T08:47:35;18.80;99.90
31527;DHT22;18136;42.236;-73.040;2023-09-07T08:50:03;18.80;99.90
31527;DHT22;18136;42.236;-73.040;2023-09-07T08:52:30;18.80;99.90
31527;DHT22;18136;42.236;-73.040;2023-09-07T08:54:56;18.80;99.90
31527;DHT22;18136;42.236;-73.040;2023-09-07T08:57:27;18.80;99.90
31527;DHT22;18136;42.236;-73.040;2023-09-07T08:59:55;18.80;99.90
31527;DHT22;18136;42.236;-73.040;2023-09-07T09:02:21;18.80;99.90
31527;DHT22;18136;42.236;-73.040;2023-09-07T09:04:48;18.80;99.90
31527;DHT22;18136;42.236;-73.040;2023-09-07T09:07:14;18.80;99.90
31527;DHT22;18136;42.236;-73.040;2023-09-07T09:09:40;18.80;99.90
31527;DHT22;18136;42.236;-73.040;2023-09-07T09:12:10;18.80;99.90
31527;DHT22;18136;42.236;-73.040;2023-09-07T09:14:41;18.80;99.90
31527;DHT22;18136;42.236;-73.040;2023-09-07T09:17:11;18.80;99.90
31527;DHT22;18136;42.236;-73.040;2023-09-07T09:19:38;18.80;99.90
31527;DHT22;18136;42.236;-73.040;2023-09-07T09:22:05;18.80;99.90
31527;DHT22;18136;42.236;-73.040;2023-09-07T09:24:33;18.80;99.90
31527;DHT22;18136;42.236;-73.040;2023-09-07T09:27:02;18.80;99.90
31527;DHT22;18136;42.236;-73.040;2023-09-07T09:29:32;18.80;99.90
31527;DHT22;18136;42.236;-73.040;2023-09-07T09:32:00;18.80;99.90
31527;DHT22;18136;42.236;-73.040;2023-09-07T09:34:39;18.80;99.90
31527;DHT22;18136;42.236;-73.040;2023-09-07T09:37:13;18.80;99.90
31527;DHT22;18136;42.236;-73.040;2023-09-07T09:39:41;18.80;99.90
31527;DHT22;18136;42.236;-73.040;2023-09-07T09:42:09;18.80;99.90
31527;DHT22;18136;42.236;-73.040;2023-09-07T09:44:35;18.80;99.90
31527;DHT22;18136;42.236;-73.040;2023-09-07T09:47:02;18.80;99.90
31527;DHT22;18136;42.236;-73.040;2023-09-07T09:49:29;18.80;99.90
31527;DHT22;18136;42.236;-73.040;2023-09-07T09:51:56;18.80;99.90
31527;DHT22;18136;42.236;-73.040;2023-09-07T09:54:24;18.80;99.90
31527;DHT22;18136;42.236;-73.040;2023-09-07T09:56:52;18.80;99.90
31527;DHT22;18136;42.236;-73.040;2023-09-07T09:59:20;18.80;99.90
31527;DHT22;18136;42.236;-73.040;2023-09-07T10:01:48;18.80;99.90
31527;DHT22;18136;42.236;-73.040;2023-09-07T10:04:18;18.80;99.90
31527;DHT22;18136;42.236;-73.040;2023-09-07T10:06:59;18.80;99.90
31527;DHT22;18136;42.236;-73.040;2023-09-07T10:09:34;18.80;99.90
31527;DHT22;18136;42.236;-73.040;2023-09-07T10:12:02;18.80;99.90
31527;DHT22;18136;42.236;-73.040;2023-09-07T10:14:40;18.80;99.90
31527;DHT22;18136;42.236;-73.040;2023-09-07T10:17:07;18.80;99.90
31527;DHT22;18136;42.236;-73.040;2023-09-07T10:19:35;18.80;99.90
31527;DHT22;18136;42.236;-73.040;2023-09-07T10:22:03;18.80;99.90
31527;DHT22;18136;42.236;-73.040;2023-09-07T10:24:32;18.80;99.90
31527;DHT22;18136;42.236;-73.040;2023-09-07T10:27:09;18.80;99.90
31527;DHT22;18136;42.236;-73.040;2023-09-07T10:29:50;18.80;99.90
31527;DHT22;18136;42.236;-73.040;2023-09-07T10:32:40;18.80;99.90
31527;DHT22;18136;42.236;-73.040;2023-09-07T10:35:16;18.80;99.90
31527;DHT22;18136;42.236;-73.040;2023-09-07T10:37:47;18.80;99.90
31527;DHT22;18136;42.236;-73.040;2023-09-07T10:40:19;18.80;99.90
31527;DHT22;18136;42.236;-73.040;2023-09-07T10:42:47;18.80;99.90
31527;DHT22;18136;42.236;-73.040;2023-09-07T10:45:15;18.80;99.90
31527;DHT22;18136;42.236;-73.040;2023-09-07T10:47:43;18.80;99.90
31527;DHT22;18136;42.236;-73.040;2023-09-07T10:50:11;18.80;99.90
31527;DHT22;18136;42.236;-73.040;2023-09-07T10:52:39;18.80;99.90
31527;DHT22;18136;42.236;-73.040;2023-09-07T10:55:07;18.80;99.90
31527;DHT22;18136;42.236;-73.040;2023-09-07T10:57:44;18.80;99.90
31527;DHT22;18136;42.236;-73.040;2023-09-07T11:00:11;18.80;99.90
31527;DHT22;18136;42.236;-73.040;2023-09-07T11:02:40;18.80;99.90
31527;DHT22;18136;42.236;-73.040;2023-09-07T11:05:06;18.80;99.90
31527;DHT22;18136;42.236;-73.040;2023-09-07T11:07:33;18.80;99.90
31527;DHT22;18136;42.236;-73.040;2023-09-07T11:10:00;18.80;99.90
31527;DHT22;18136;42.236;-73.040;2023-09-07T11:12:29;18.80;99.90
31527;DHT22;18136;42.236;-73.040;2023-09-07T11:14:56;18.80;99.90
31527;DHT22;18136;42.236;-73.040;2023-09-07T11:17:28;18.80;99.90
31527;DHT22;18136;42.236;-73.040;2023-09-07T11:19:55;18.90;99.90
31527;DHT22;18136;42.236;-73.040;2023-09-07T11:22:22;18.80;99.90
31527;DHT22;18136;42.236;-73.040;2023-09-07T11:24:48;18.90;99.90
31527;DHT22;18136;42.236;-73.040;2023-09-07T11:27:17;18.90;99.90
31527;DHT22;18136;42.236;-73.040;2023-09-07T11:29:51;18.90;99.90
31527;DHT22;18136;42.236;-73.040;2023-09-07T11:32:18;18.90;99.90
31527;DHT22;18136;42.236;-73.040;2023-09-07T11:34:51;18.90;99.90
31527;DHT22;18136;42.236;-73.040;2023-09-07T11:37:24;18.90;99.90
31527;DHT22;18136;42.236;-73.040;2023-09-07T11:39:51;18.90;99.90
31527;DHT22;18136;42.236;-73.040;2023-09-07T11:42:18;19.00;99.90
31527;DHT22;18136;42.236;-73.040;2023-09-07T11:44:44;19.00;99.90
31527;DHT22;18136;42.236;-73.040;2023-09-07T11:47:10;19.00;99.90
31527;DHT22;18136;42.236;-73.040;2023-09-07T11:49:36;19.10;99.90
31527;DHT22;18136;42.236;-73.040;2023-09-07T11:52:02;19.10;99.90
31527;DHT22;18136;42.236;-73.040;2023-09-07T11:54:29;19.20;99.90
31527;DHT22;18136;42.236;-73.040;2023-09-07T11:56:55;19.20;99.90
31527;DHT22;18136;42.236;-73.040;2023-09-07T11:59:21;19.30;99.90
31527;DHT22;18136;42.236;-73.040;2023-09-07T12:01:48;19.30;99.90
31527;DHT22;18136;42.236;-73.040;2023-09-07T12:04:14;19.40;99.90
31527;DHT22;18136;42.236;-73.040;2023-09-07T12:06:40;19.40;99.90
31527;DHT22;18136;42.236;-73.040;2023-09-07T12:09:07;19.50;99.90
31527;DHT22;18136;42.236;-73.040;2023-09-07T12:11:35;19.60;99.90
31527;DHT22;18136;42.236;-73.040;2023-09-07T12:14:01;19.60;99.90
31527;DHT22;18136;42.236;-73.040;2023-09-07T12:16:28;19.70;99.90
31527;DHT22;18136;42.236;-73.040;2023-09-07T12:18:55;19.70;99.90
31527;DHT22;18136;42.236;-73.040;2023-09-07T12:21:22;19.80;99.90
31527;DHT22;18136;42.236;-73.040;2023-09-07T12:23:48;19.90;99.90
31527;DHT22;18136;42.236;-73.040;2023-09-07T12:26:14;19.90;99.90
31527;DHT22;18136;42.236;-73.040;2023-09-07T12:28:42;20.00;99.90
31527;DHT22;18136;42.236;-73.040;2023-09-07T12:31:09;20.10;99.90
31527;DHT22;18136;42.236;-73.040;2023-09-07T12:33:35;20.20;99.90
31527;DHT22;18136;42.236;-73.040;2023-09-07T12:36:03;20.20;99.90
31527;DHT22;18136;42.236;-73.040;2023-09-07T12:38:29;20.30;99.90
31527;DHT22;18136;42.236;-73.040;2023-09-07T12:40:55;20.40;99.90
31527;DHT22;18136;42.236;-73.040;2023-09-07T12:43:21;20.40;99.90
31527;DHT22;18136;42.236;-73.040;2023-09-07T12:45:50;20.50;99.90
31527;DHT22;18136;42.236;-73.040;2023-09-07T12:48:16;20.60;99.90
31527;DHT22;18136;42.236;-73.040;2023-09-07T12:50:42;20.70;99.90
31527;DHT22;18136;42.236;-73.040;2023-09-07T12:53:09;20.80;99.90
31527;DHT22;18136;42.236;-73.040;2023-09-07T12:55:35;20.90;99.90
31527;DHT22;18136;42.236;-73.040;2023-09-07T12:58:01;21.10;99.90
31527;DHT22;18136;42.236;-73.040;2023-09-07T13:00:27;21.30;99.90
31527;DHT22;18136;42.236;-73.040;2023-09-07T13:02:55;21.40;99.90
31527;DHT22;18136;42.236;-73.040;2023-09-07T13:05:22;21.60;99.90
31527;DHT22;18136;42.236;-73.040;2023-09-07T13:07:49;21.80;99.90
31527;DHT22;18136;42.236;-73.040;2023-09-07T13:10:15;21.90;99.90
31527;DHT22;18136;42.236;-73.040;2023-09-07T13:12:41;22.10;99.90
31527;DHT22;18136;42.236;-73.040;2023-09-07T13:15:08;22.30;99.90
31527;DHT22;18136;42.236;-73.040;2023-09-07T13:17:35;22.50;99.90
31527;DHT22;18136;42.236;-73.040;2023-09-07T13:20:01;22.70;99.90
31527;DHT22;18136;42.236;-73.040;2023-09-07T13:22:28;22.90;99.90
31527;DHT22;18136;42.236;-73.040;2023-09-07T13:24:56;23.10;99.90
31527;DHT22;18136;42.236;-73.040;2023-09-07T13:27:22;23.30;99.90
31527;DHT22;18136;42.236;-73.040;2023-09-07T13:29:51;23.50;99.90
31527;DHT22;18136;42.236;-73.040;2023-09-07T13:32:17;23.70;99.90
31527;DHT22;18136;42.236;-73.040;2023-09-07T13:34:44;23.90;99.90
31527;DHT22;18136;42.236;-73.040;2023-09-07T13:37:10;24.00;99.90
31527;DHT22;18136;42.236;-73.040;2023-09-07T13:39:36;24.20;99.90
31527;DHT22;18136;42.236;-73.040;2023-09-07T13:42:02;24.30;99.90
31527;DHT22;18136;42.236;-73.040;2023-09-07T13:44:29;24.50;99.90
31527;DHT22;18136;42.236;-73.040;2023-09-07T13:46:58;24.70;99.90
31527;DHT22;18136;42.236;-73.040;2023-09-07T13:49:25;24.90;99.90
31527;DHT22;18136;42.236;-73.040;2023-09-07T13:51:51;25.00;99.90
31527;DHT22;18136;42.236;-73.040;2023-09-07T13:54:17;25.10;99.90
31527;DHT22;18136;42.236;-73.040;2023-09-07T13:56:44;25.30;99.90
31527;DHT22;18136;42.236;-73.040;2023-09-07T13:59:12;25.40;99.90
31527;DHT22;18136;42.236;-73.040;2023-09-07T14:01:38;25.60;99.90
31527;DHT22;18136;42.236;-73.040;2023-09-07T14:04:05;25.80;99.90
31527;DHT22;18136;42.236;-73.040;2023-09-07T14:06:32;25.80;99.90
31527;DHT22;18136;42.236;-73.040;2023-09-07T14:08:58;26.00;99.90
31527;DHT22;18136;42.236;-73.040;2023-09-07T14:11:24;26.10;99.90
31527;DHT22;18136;42.236;-73.040;2023-09-07T14:13:50;26.20;99.90
31527;DHT22;18136;42.236;-73.040;2023-09-07T14:16:21;26.30;99.90
31527;DHT22;18136;42.236;-73.040;2023-09-07T14:18:47;26.50;99.90
31527;DHT22;18136;42.236;-73.040;2023-09-07T14:21:15;26.60;99.90
31527;DHT22;18136;42.236;-73.040;2023-09-07T14:23:41;26.80;99.90
31527;DHT22;18136;42.236;-73.040;2023-09-07T14:26:08;26.90;99.90
31527;DHT22;18136;42.236;-73.040;2023-09-07T14:28:35;27.00;99.90
31527;DHT22;18136;42.236;-73.040;2023-09-07T14:31:03;27.10;99.90
31527;DHT22;18136;42.236;-73.040;2023-09-07T14:33:32;27.10;99.90
31527;DHT22;18136;42.236;-73.040;2023-09-07T14:35:58;27.20;99.90
31527;DHT22;18136;42.236;-73.040;2023-09-07T14:38:30;27.30;99.90
31527;DHT22;18136;42.236;-73.040;2023-09-07T14:40:56;27.30;99.90
31527;DHT22;18136;42.236;-73.040;2023-09-07T14:43:23;27.40;99.90
31527;DHT22;18136;42.236;-73.040;2023-09-07T14:45:49;27.50;99.90
31527;DHT22;18136;42.236;-73.040;2023-09-07T14:48:16;27.50;99.90
31527;DHT22;18136;42.236;-73.040;2023-09-07T14:50:43;27.60;99.90
31527;DHT22;18136;42.236;-73.040;2023-09-07T14:53:09;27.80;99.90
31527;DHT22;18136;42.236;-73.040;2023-09-07T14:55:37;27.90;99.90
31527;DHT22;18136;42.236;-73.040;2023-09-07T14:58:03;28.10;99.90
31527;DHT22;18136;42.236;-73.040;2023-09-07T15:00:30;28.00;99.90
31527;DHT22;18136;42.236;-73.040;2023-09-07T15:02:59;28.10;99.90